Franconia, Minnesota
Current Conditions -  °F | °C
As of 5:15 PM on Saturday 25 Oct 2014 (Local Time) from KOEO Reporting Station
Clear Clear  
Wind Chill: 61°   Ceiling: Unl
Heat Index: 61°   Visibility: 10mi
Dew Point: 25°   Wind: 14mph
Humidity: 25%   Direction: 290°WNW
Pressure: 30.04"   Gusts: 18mph
Location:  45.3892°N, 92.7331°W
Report Text: KOEO 252215Z AUTO 29012G16KT 10SM CLR 16/M04 A3004 RMK AO2 T01601039
Loading
Personal Weather Stations






























Interactive Weather Map
Tropical Storm Tracking
New forecast layout! Learn more

10-Day Weather Forecast

Advertisements
Track Severe Weather on mobile